CheckWX is a tool to help pilots better visualize weather data.  It is not intended as a substitute for an official pre-flight weather briefing.

09:51:33 UTC

KALS TAF
San Luis Valley Regional / Bergman Field Airport
Alamosa, Colorado, USA
KALS 200540Z 2006/2106 VRB03KT P6SM SCT080 FM201400 VRB03KT P6SM SCT200 FM202000 15006KT P6SM SCT200

Mar-20@
06:00 UTC

Mar-20 @ 06:00 UTC

Mar-20@
14:00 UTC

Mar-20 @ 14:00 UTC

KALS 200540Z 2006/2106 VRB03KT P6SM SCT080
Wind
  • Variable at 3 KTS
Cloud Levels
  • Scattered at 8,000' AGL

Mar-20@
14:00 UTC

Mar-20 @ 14:00 UTC

Mar-20@
20:00 UTC

Mar-20 @ 20:00 UTC

FM201400 VRB03KT P6SM SCT200

From

From Standard forecast or significant change

Wind
  • Variable at 3 KTS
Cloud Levels
  • Scattered at 20,000' AGL

Mar-20@
20:00 UTC

Mar-20 @ 20:00 UTC

Mar-21@
06:00 UTC

Mar-21 @ 06:00 UTC

FM202000 15006KT P6SM SCT200

From

From Standard forecast or significant change

Wind
  • 150° at 6 KTS
Cloud Levels
  • Scattered at 20,000' AGL